createdAt,value
2018-11-22T00:00:39.012Z,3.5
2018-11-22T00:01:39.043Z,3.54
2018-11-22T00:02:39.215Z,3.54
2018-11-22T00:03:39.261Z,3.55
2018-11-22T00:04:39.069Z,3.54
2018-11-22T00:05:39.175Z,3.54
2018-11-22T00:06:39.232Z,3.48
2018-11-22T00:07:38.986Z,3.49
2018-11-22T00:08:40.426Z,3.5
2018-11-22T00:09:39.070Z,3.52
2018-11-22T00:10:39.005Z,3.51
2018-11-22T00:11:39.022Z,3.52
2018-11-22T00:12:39.032Z,3.53
2018-11-22T00:13:39.433Z,3.51
2018-11-22T00:14:38.973Z,3.53
2018-11-22T00:15:39.012Z,3.51
2018-11-22T00:16:39.007Z,3.5
2018-11-22T00:17:39.014Z,3.5
2018-11-22T00:18:39.213Z,3.49
2018-11-22T00:19:39.100Z,3.49
2018-11-22T00:20:39.037Z,3.46
2018-11-22T00:21:38.977Z,3.44
2018-11-22T00:22:38.999Z,3.45
2018-11-22T00:23:38.984Z,3.47
2018-11-22T00:24:39.306Z,3.49
2018-11-22T00:25:39.061Z,3.47
2018-11-22T00:26:38.989Z,3.47
2018-11-22T00:27:38.985Z,3.44
2018-11-22T00:28:38.934Z,3.44
2018-11-22T00:29:39.029Z,3.44
2018-11-22T00:30:39.046Z,3.48
2018-11-22T00:31:39.135Z,3.47
2018-11-22T00:32:38.987Z,3.51
2018-11-22T00:33:39.161Z,3.5
2018-11-22T00:34:39.008Z,3.49
2018-11-22T00:35:39.219Z,3.49
2018-11-22T00:36:39.112Z,3.46
2018-11-22T00:37:39.013Z,3.5
2018-11-22T00:38:39.011Z,3.51
2018-11-22T00:39:39.271Z,3.52
2018-11-22T00:40:39.193Z,3.53
2018-11-22T00:41:39.220Z,3.56
2018-11-22T00:42:39.188Z,3.57
2018-11-22T00:43:39.164Z,3.56
2018-11-22T00:44:38.943Z,3.57
2018-11-22T00:45:39.416Z,3.58
2018-11-22T00:46:39.079Z,3.61
2018-11-22T00:47:38.955Z,3.62
2018-11-22T00:48:39.214Z,3.59
2018-11-22T00:49:38.965Z,3.62
2018-11-22T00:50:39.425Z,3.62
2018-11-22T00:51:39.722Z,3.62
2018-11-22T00:52:39.293Z,3.58
2018-11-22T00:53:39.184Z,3.57
2018-11-22T00:54:38.994Z,3.59
2018-11-22T00:55:39.161Z,3.56
2018-11-22T00:56:38.937Z,3.55
2018-11-22T00:57:39.277Z,3.49
2018-11-22T00:58:39.094Z,3.52
2018-11-22T00:59:39.002Z,3.49
2018-11-22T01:00:39.210Z,3.49
2018-11-22T01:01:39.049Z,3.46
2018-11-22T01:02:38.928Z,3.44
2018-11-22T01:03:39.010Z,3.43
2018-11-22T01:04:39.034Z,3.43
2018-11-22T01:05:39.004Z,3.42
2018-11-22T01:06:38.987Z,3.44
2018-11-22T01:07:38.956Z,3.42
2018-11-22T01:08:38.990Z,3.43
2018-11-22T01:09:39.198Z,3.42
2018-11-22T01:10:38.877Z,3.41
2018-11-22T01:11:39.178Z,3.4
2018-11-22T01:12:39.281Z,3.4
2018-11-22T01:13:39.278Z,3.4
2018-11-22T01:14:39.126Z,3.41
2018-11-22T01:15:39.236Z,3.39
2018-11-22T01:16:39.056Z,3.39
2018-11-22T01:17:38.915Z,3.38
2018-11-22T01:18:38.888Z,3.38
2018-11-22T01:19:38.944Z,3.39
2018-11-22T01:20:38.864Z,3.37
2018-11-22T01:21:39.052Z,3.37
2018-11-22T01:22:39.152Z,3.39
2018-11-22T01:23:39.072Z,3.39
2018-11-22T01:24:38.915Z,3.4
2018-11-22T01:25:39.194Z,3.39
2018-11-22T01:26:39.221Z,3.39
2018-11-22T01:27:39.326Z,3.37
2018-11-22T01:28:38.938Z,3.37
2018-11-22T01:29:39.063Z,3.39
2018-11-22T01:30:38.869Z,3.38
2018-11-22T01:31:38.924Z,3.4
2018-11-22T01:32:39.196Z,3.41
2018-11-22T01:33:39.244Z,3.43
2018-11-22T01:34:39.175Z,3.42
2018-11-22T01:35:38.918Z,3.42
2018-11-22T01:36:39.150Z,3.42
2018-11-22T01:37:39.123Z,3.47
2018-11-22T01:38:38.877Z,3.44
2018-11-22T01:39:39.286Z,3.44
2018-11-22T01:40:39.132Z,3.44
2018-11-22T01:41:38.887Z,3.48
2018-11-22T01:42:39.298Z,3.44
2018-11-22T01:43:38.873Z,3.43
2018-11-22T01:44:38.881Z,3.43
2018-11-22T01:45:38.988Z,3.42
2018-11-22T01:46:38.866Z,3.4
2018-11-22T01:47:38.882Z,3.35
2018-11-22T01:48:39.014Z,3.37
2018-11-22T01:49:38.855Z,3.4
2018-11-22T01:50:38.893Z,3.43
2018-11-22T01:51:38.979Z,3.43
2018-11-22T01:52:38.941Z,3.41
2018-11-22T01:53:38.900Z,3.39
2018-11-22T01:54:38.971Z,3.4
2018-11-22T01:55:38.962Z,3.37
2018-11-22T01:56:38.888Z,3.38
2018-11-22T01:57:38.936Z,3.39
2018-11-22T01:58:38.882Z,3.41
2018-11-22T01:59:38.909Z,3.38
2018-11-22T02:00:38.886Z,3.39
2018-11-22T02:01:38.917Z,3.4
2018-11-22T02:02:38.944Z,3.41
2018-11-22T02:03:39.280Z,3.41
2018-11-22T02:04:39.162Z,3.44
2018-11-22T02:05:39.200Z,3.42
2018-11-22T02:06:38.865Z,3.43
2018-11-22T02:07:39.080Z,3.39
2018-11-22T02:08:38.971Z,3.43
2018-11-22T02:09:38.826Z,3.43
2018-11-22T02:10:38.883Z,3.44
2018-11-22T02:11:38.834Z,3.46
2018-11-22T02:12:39.251Z,3.49
2018-11-22T02:13:38.847Z,3.47
2018-11-22T02:14:38.843Z,3.5
2018-11-22T02:15:39.138Z,3.5
2018-11-22T02:16:38.839Z,3.49
2018-11-22T02:17:38.987Z,3.48
2018-11-22T02:18:39.302Z,3.45
2018-11-22T02:19:38.814Z,3.49
2018-11-22T02:20:38.898Z,3.49
2018-11-22T02:21:38.841Z,3.5
2018-11-22T02:22:39.222Z,3.51
2018-11-22T02:23:38.999Z,3.52
2018-11-22T02:24:39.185Z,3.55
2018-11-22T02:25:38.796Z,3.52
2018-11-22T02:26:38.786Z,3.52
2018-11-22T02:27:39.002Z,3.53
2018-11-22T02:28:38.850Z,3.5
2018-11-22T02:29:38.904Z,3.49
2018-11-22T02:30:39.077Z,3.52
2018-11-22T02:31:39.172Z,3.5
2018-11-22T02:32:38.794Z,3.51
2018-11-22T02:33:38.854Z,3.53
2018-11-22T02:34:39.307Z,3.55
2018-11-22T02:35:39.518Z,3.57
2018-11-22T02:36:38.849Z,3.57
2018-11-22T02:37:38.799Z,3.58
2018-11-22T02:38:38.950Z,3.53
2018-11-22T02:39:38.983Z,3.54
2018-11-22T02:40:38.923Z,3.56
2018-11-22T02:41:38.945Z,3.56
2018-11-22T02:42:38.922Z,3.55
2018-11-22T02:43:38.825Z,3.55
2018-11-22T02:44:38.851Z,3.54
2018-11-22T02:45:38.855Z,3.55
2018-11-22T02:46:38.841Z,3.53
2018-11-22T02:47:38.959Z,3.51
2018-11-22T02:48:38.784Z,3.53
2018-11-22T02:49:39.195Z,3.52
2018-11-22T02:50:38.854Z,3.55
2018-11-22T02:51:39.191Z,3.55
2018-11-22T02:52:38.854Z,3.54
2018-11-22T02:53:38.916Z,3.57
2018-11-22T02:54:38.941Z,3.57
2018-11-22T02:55:38.902Z,3.55
2018-11-22T02:56:38.832Z,3.55
2018-11-22T02:57:38.923Z,3.55
2018-11-22T02:58:38.884Z,3.55
2018-11-22T02:59:38.790Z,3.57
2018-11-22T03:00:39.034Z,3.53
2018-11-22T03:01:39.245Z,3.54
2018-11-22T03:02:38.885Z,3.53
2018-11-22T03:03:39.000Z,3.55
2018-11-22T03:04:39.197Z,3.54
2018-11-22T03:05:38.737Z,3.56
2018-11-22T03:06:39.007Z,3.53
2018-11-22T03:07:38.773Z,3.54
2018-11-22T03:08:38.893Z,3.53
2018-11-22T03:09:38.868Z,3.56
2018-11-22T03:10:38.881Z,3.54
2018-11-22T03:11:38.812Z,3.54
2018-11-22T03:12:39.367Z,3.52
2018-11-22T03:13:38.802Z,3.55
2018-11-22T03:14:38.818Z,3.56
2018-11-22T03:15:38.780Z,3.53
2018-11-22T03:16:38.816Z,3.59
2018-11-22T03:17:38.779Z,3.54
2018-11-22T03:18:38.778Z,3.56
2018-11-22T03:19:39.130Z,3.52
2018-11-22T03:20:38.775Z,3.53
2018-11-22T03:21:38.816Z,3.51
2018-11-22T03:22:38.750Z,3.53
2018-11-22T03:23:38.790Z,3.51
2018-11-22T03:24:38.763Z,3.53
2018-11-22T03:25:38.742Z,3.53
2018-11-22T03:26:38.715Z,3.56
2018-11-22T03:27:38.720Z,3.56
2018-11-22T03:28:38.763Z,3.56
2018-11-22T03:29:38.798Z,3.58
2018-11-22T03:30:38.808Z,3.59
2018-11-22T03:31:39.032Z,3.58
2018-11-22T03:32:38.783Z,3.59
2018-11-22T03:33:38.891Z,3.58
2018-11-22T03:34:38.737Z,3.58
2018-11-22T03:35:38.766Z,3.59
2018-11-22T03:36:38.934Z,3.57
2018-11-22T03:37:38.778Z,3.55
2018-11-22T03:38:38.798Z,3.57
2018-11-22T03:39:38.938Z,3.57
2018-11-22T03:40:38.744Z,3.56
2018-11-22T03:41:38.818Z,3.57
2018-11-22T03:42:38.773Z,3.59
2018-11-22T03:43:38.793Z,3.61
2018-11-22T03:44:38.854Z,3.58
2018-11-22T03:45:38.828Z,3.61
2018-11-22T03:46:38.745Z,3.6
2018-11-22T03:47:38.891Z,3.61
2018-11-22T03:48:39.324Z,3.6
2018-11-22T03:49:39.317Z,3.57
2018-11-22T03:50:39.016Z,3.56
2018-11-22T03:51:38.745Z,3.54
2018-11-22T03:52:38.738Z,3.54
2018-11-22T03:53:38.798Z,3.53
2018-11-22T03:54:39.123Z,3.51
2018-11-22T03:55:38.699Z,3.5
2018-11-22T03:56:38.934Z,3.49
2018-11-22T03:57:38.771Z,3.49
2018-11-22T03:58:38.847Z,3.46
2018-11-22T03:59:38.833Z,3.48
2018-11-22T04:00:38.892Z,3.48
2018-11-22T04:01:38.708Z,3.47
2018-11-22T04:02:38.890Z,3.45
2018-11-22T04:03:38.812Z,3.46
2018-11-22T04:04:39.093Z,3.48
2018-11-22T04:05:38.689Z,3.5
2018-11-22T04:06:38.713Z,3.51
2018-11-22T04:07:38.702Z,3.53
2018-11-22T04:08:38.970Z,3.5
2018-11-22T04:09:38.696Z,3.51
2018-11-22T04:10:38.879Z,3.54
2018-11-22T04:11:38.882Z,3.5
2018-11-22T04:12:39.520Z,3.51
2018-11-22T04:13:38.862Z,3.49
2018-11-22T04:14:38.741Z,3.47
2018-11-22T04:15:38.688Z,3.44
2018-11-22T04:16:38.833Z,3.43
2018-11-22T04:17:38.653Z,3.4
2018-11-22T04:18:38.844Z,3.41
2018-11-22T04:19:38.845Z,3.39
2018-11-22T04:20:38.690Z,3.42
2018-11-22T04:21:39.038Z,3.39
2018-11-22T04:22:38.767Z,3.4
2018-11-22T04:23:38.744Z,3.39
2018-11-22T04:24:38.765Z,3.41
2018-11-22T04:25:38.658Z,3.41
2018-11-22T04:26:39.318Z,3.43
2018-11-22T04:27:38.671Z,3.43
2018-11-22T04:28:38.685Z,3.39
2018-11-22T04:29:39.045Z,3.42
2018-11-22T04:30:38.894Z,3.4
2018-11-22T04:31:38.633Z,3.39
2018-11-22T04:32:38.750Z,3.39
2018-11-22T04:33:38.701Z,3.38
2018-11-22T04:34:38.727Z,3.37
2018-11-22T04:35:38.716Z,3.37
2018-11-22T04:36:38.679Z,3.37
2018-11-22T04:37:38.621Z,3.36
2018-11-22T04:38:38.692Z,3.37
2018-11-22T04:39:38.712Z,3.37
2018-11-22T04:40:39.159Z,3.39
2018-11-22T04:41:38.735Z,3.39
2018-11-22T04:42:38.639Z,3.4
2018-11-22T04:43:38.652Z,3.39
2018-11-22T04:44:38.660Z,3.38
2018-11-22T04:45:39.174Z,3.38
2018-11-22T04:46:38.710Z,3.39
2018-11-22T04:47:38.655Z,3.43
2018-11-22T04:48:38.631Z,3.41
2018-11-22T04:49:38.796Z,3.43
2018-11-22T04:50:38.645Z,3.42
2018-11-22T04:51:38.765Z,3.43
2018-11-22T04:52:38.645Z,3.44
2018-11-22T04:53:38.696Z,3.45
2018-11-22T04:54:38.592Z,3.48
2018-11-22T04:55:38.614Z,3.49
2018-11-22T04:56:38.615Z,3.48
2018-11-22T04:57:38.633Z,3.44
2018-11-22T04:58:38.645Z,3.47
2018-11-22T04:59:38.603Z,3.45
2018-11-22T05:00:38.876Z,3.49
2018-11-22T05:01:38.617Z,3.49
2018-11-22T05:02:38.672Z,3.5
2018-11-22T05:03:39.296Z,3.51
2018-11-22T05:04:38.880Z,3.5
2018-11-22T05:05:38.711Z,3.51
2018-11-22T05:06:38.856Z,3.5
2018-11-22T05:07:38.563Z,3.5
2018-11-22T05:08:38.657Z,3.51
2018-11-22T05:09:38.760Z,3.51
2018-11-22T05:10:38.787Z,3.49
2018-11-22T05:11:38.607Z,3.49
2018-11-22T05:12:38.748Z,3.49
2018-11-22T05:13:38.742Z,3.48
2018-11-22T05:14:38.594Z,3.44
2018-11-22T05:15:39.421Z,3.43
2018-11-22T05:16:38.795Z,3.43
2018-11-22T05:17:38.562Z,3.42
2018-11-22T05:18:38.701Z,3.39
2018-11-22T05:19:38.693Z,3.42
2018-11-22T05:20:38.900Z,3.39
2018-11-22T05:21:38.585Z,3.42
2018-11-22T05:22:38.796Z,3.41
2018-11-22T05:23:38.716Z,3.4
2018-11-22T05:24:38.636Z,3.39
2018-11-22T05:25:38.602Z,3.38
2018-11-22T05:26:38.741Z,3.35
2018-11-22T05:27:38.598Z,3.37
2018-11-22T05:28:38.589Z,3.38
2018-11-22T05:29:38.654Z,3.39
2018-11-22T05:30:39.843Z,3.38
2018-11-22T05:31:38.650Z,3.38
2018-11-22T05:32:38.701Z,3.37
2018-11-22T05:33:38.675Z,3.36
2018-11-22T05:34:38.608Z,3.33
2018-11-22T05:35:38.645Z,3.36
2018-11-22T05:36:38.788Z,3.34
2018-11-22T05:37:38.749Z,3.32
2018-11-22T05:38:38.716Z,3.31
2018-11-22T05:39:38.930Z,3.31
2018-11-22T05:40:38.678Z,3.28
2018-11-22T05:41:44.071Z,3.31
2018-11-22T05:42:38.562Z,3.29
2018-11-22T05:43:38.610Z,3.26
2018-11-22T05:44:38.645Z,3.3
2018-11-22T05:45:38.795Z,3.28
2018-11-22T05:46:38.781Z,3.28
2018-11-22T05:47:38.578Z,3.27
2018-11-22T05:48:38.693Z,3.26
2018-11-22T05:49:38.679Z,3.26
2018-11-22T05:50:38.908Z,3.26
2018-11-22T05:51:38.594Z,3.25
2018-11-22T05:52:38.558Z,3.25
2018-11-22T05:53:38.720Z,3.23
2018-11-22T05:54:38.686Z,3.23
2018-11-22T05:55:38.890Z,3.22
2018-11-22T05:56:38.690Z,3.22
2018-11-22T05:57:39.160Z,3.18
2018-11-22T05:58:38.637Z,3.2
2018-11-22T05:59:38.764Z,3.13
2018-11-22T06:00:38.735Z,3.15
2018-11-22T06:01:38.600Z,3.17
2018-11-22T06:02:38.511Z,3.13
2018-11-22T06:03:38.642Z,3.12
2018-11-22T06:04:38.625Z,3.11
2018-11-22T06:05:38.653Z,3.11
2018-11-22T06:06:38.584Z,3.12
2018-11-22T06:07:38.681Z,3.11
2018-11-22T06:08:38.952Z,3.09
2018-11-22T06:09:38.530Z,3.12
2018-11-22T06:10:38.715Z,3.13
2018-11-22T06:11:38.598Z,3.13
2018-11-22T06:12:38.610Z,3.13
2018-11-22T06:13:38.526Z,3.13
2018-11-22T06:14:38.514Z,3.12
2018-11-22T06:15:38.579Z,3.14
2018-11-22T06:16:38.576Z,3.14
2018-11-22T06:17:38.497Z,3.14
2018-11-22T06:18:38.566Z,3.13
2018-11-22T06:19:38.503Z,3.12
2018-11-22T06:20:38.503Z,3.08
2018-11-22T06:21:38.489Z,3.07
2018-11-22T06:22:38.671Z,3.07
2018-11-22T06:23:38.519Z,3.08
2018-11-22T06:24:38.472Z,3.07
2018-11-22T06:25:38.505Z,3.07
2018-11-22T06:26:38.549Z,3.06
2018-11-22T06:27:38.758Z,3.03
2018-11-22T06:28:38.508Z,2.98
2018-11-22T06:29:38.546Z,3.01
2018-11-22T06:30:38.875Z,3.01
2018-11-22T06:31:38.499Z,3
2018-11-22T06:32:38.478Z,3
2018-11-22T06:33:38.471Z,3.02
2018-11-22T06:34:38.628Z,3.01
2018-11-22T06:35:38.480Z,3.02
2018-11-22T06:36:38.491Z,3.02
2018-11-22T06:37:38.803Z,3
2018-11-22T06:38:38.532Z,3
2018-11-22T06:39:38.618Z,3.01
2018-11-22T06:40:38.757Z,3.01
2018-11-22T06:41:38.644Z,3.02
2018-11-22T06:42:38.551Z,3.06
2018-11-22T06:43:38.677Z,3.05
2018-11-22T06:44:38.544Z,3.06
2018-11-22T06:45:38.674Z,3.04
2018-11-22T06:46:38.458Z,3.04
2018-11-22T06:47:38.530Z,3
2018-11-22T06:48:38.625Z,3.04
2018-11-22T06:49:38.593Z,3.01
2018-11-22T06:50:38.653Z,3.02
2018-11-22T06:51:38.493Z,3.02
2018-11-22T06:52:38.706Z,3.01
2018-11-22T06:53:38.477Z,3.05
2018-11-22T06:54:38.635Z,3.03
2018-11-22T06:55:38.490Z,3.04
2018-11-22T06:56:38.601Z,3.03
2018-11-22T06:57:38.516Z,3.03
2018-11-22T06:58:38.492Z,3.02
2018-11-22T06:59:38.546Z,3.04
2018-11-22T07:00:38.604Z,3.02
2018-11-22T07:01:38.536Z,3.02
2018-11-22T07:02:38.670Z,3.03
2018-11-22T07:03:38.977Z,3.05
2018-11-22T07:04:38.579Z,3.07
2018-11-22T07:05:38.528Z,3.07
2018-11-22T07:06:38.621Z,3.07
2018-11-22T07:07:38.570Z,3.11
2018-11-22T07:08:38.515Z,3.12
2018-11-22T07:09:38.534Z,3.13
2018-11-22T07:10:38.859Z,3.13
2018-11-22T07:11:38.553Z,3.12
2018-11-22T07:12:38.646Z,3.09
2018-11-22T07:13:38.634Z,3.11
2018-11-22T07:14:39.231Z,3.09
2018-11-22T07:15:38.450Z,3.09
2018-11-22T07:16:38.573Z,3.08
2018-11-22T07:17:38.525Z,3.08
2018-11-22T07:18:38.891Z,3.09
2018-11-22T07:19:38.539Z,3.03
2018-11-22T07:20:38.717Z,3.05
2018-11-22T07:21:38.520Z,3.02
2018-11-22T07:22:38.471Z,3.02
2018-11-22T07:23:38.470Z,3
2018-11-22T07:24:38.474Z,3.03
2018-11-22T07:25:38.407Z,3.01
2018-11-22T07:26:39.681Z,3.01
2018-11-22T07:27:38.638Z,3.02
2018-11-22T07:28:38.440Z,3.02
2018-11-22T07:29:38.448Z,3.04
2018-11-22T07:30:42.793Z,3.01
2018-11-22T07:31:38.387Z,2.99
2018-11-22T07:32:38.700Z,3
2018-11-22T07:33:38.961Z,2.99
2018-11-22T07:34:38.724Z,2.99
2018-11-22T07:35:38.533Z,2.98
2018-11-22T07:36:38.559Z,2.99
2018-11-22T07:37:38.953Z,3
2018-11-22T07:38:38.467Z,3
2018-11-22T07:39:38.581Z,2.97
2018-11-22T07:40:38.517Z,2.96
2018-11-22T07:41:38.424Z,2.98
2018-11-22T07:42:38.704Z,2.94
2018-11-22T07:43:38.976Z,2.94
2018-11-22T07:44:38.522Z,2.95
2018-11-22T07:45:38.383Z,2.95
2018-11-22T07:46:38.378Z,2.95
2018-11-22T07:47:38.466Z,2.96
2018-11-22T07:48:38.390Z,2.97
2018-11-22T07:49:38.398Z,2.99
2018-11-22T07:50:38.363Z,2.95
2018-11-22T07:51:38.339Z,2.98
2018-11-22T07:52:38.366Z,3
2018-11-22T07:53:38.354Z,2.92
2018-11-22T07:54:38.423Z,2.94
2018-11-22T07:55:38.364Z,2.94
2018-11-22T07:56:38.371Z,2.94
2018-11-22T07:57:38.392Z,2.95
2018-11-22T07:58:38.569Z,2.96
2018-11-22T07:59:38.662Z,2.96
2018-11-22T08:00:38.367Z,2.96
2018-11-22T08:01:38.431Z,2.96
2018-11-22T08:02:38.347Z,2.98
2018-11-22T08:03:38.356Z,2.98
2018-11-22T08:04:38.364Z,2.99
2018-11-22T08:05:38.385Z,3
2018-11-22T08:06:38.411Z,3.01
2018-11-22T08:07:38.535Z,3.01
2018-11-22T08:08:38.394Z,3.04
2018-11-22T08:09:38.466Z,3.03
2018-11-22T08:10:38.404Z,3.01
2018-11-22T08:11:38.448Z,3.02
2018-11-22T08:12:39.318Z,3.01
2018-11-22T08:13:38.412Z,3.04
2018-11-22T08:14:38.683Z,3.07
2018-11-22T08:15:39.241Z,3.07
2018-11-22T08:16:38.536Z,3.07
2018-11-22T08:17:38.425Z,3.07
2018-11-22T08:18:38.407Z,3.08
2018-11-22T08:19:38.350Z,3.12
2018-11-22T08:20:38.352Z,3.14
2018-11-22T08:21:38.673Z,3.13
2018-11-22T08:22:38.503Z,3.14
2018-11-22T08:23:38.339Z,3.16
2018-11-22T08:24:38.551Z,3.19
2018-11-22T08:25:38.517Z,3.19
2018-11-22T08:26:39.174Z,3.21
2018-11-22T08:27:38.434Z,3.21
2018-11-22T08:28:38.425Z,3.22
2018-11-22T08:29:38.438Z,3.22
2018-11-22T08:30:38.446Z,3.26
2018-11-22T08:31:38.450Z,3.27
2018-11-22T08:32:38.359Z,3.28
2018-11-22T08:33:38.408Z,3.27
2018-11-22T08:34:38.947Z,3.28
2018-11-22T08:35:38.449Z,3.3
2018-11-22T08:36:38.363Z,3.31
2018-11-22T08:37:38.316Z,3.32
2018-11-22T08:38:38.394Z,3.33
2018-11-22T08:39:38.315Z,3.33
2018-11-22T08:40:38.316Z,3.33
2018-11-22T08:41:38.399Z,3.34
2018-11-22T08:42:38.595Z,3.34
2018-11-22T08:43:38.341Z,3.36
2018-11-22T08:44:38.552Z,3.37
2018-11-22T08:45:38.386Z,3.37
2018-11-22T08:46:38.290Z,3.36
2018-11-22T08:47:38.486Z,3.33
2018-11-22T08:48:38.406Z,3.34
2018-11-22T08:49:38.448Z,3.28
2018-11-22T08:50:38.381Z,3.31
2018-11-22T08:51:38.318Z,3.28
2018-11-22T08:52:38.482Z,3.28
2018-11-22T08:53:38.343Z,3.31
2018-11-22T08:54:38.448Z,3.36
2018-11-22T08:55:38.387Z,3.31
2018-11-22T08:56:38.504Z,3.34
2018-11-22T08:57:38.402Z,3.31
2018-11-22T08:58:38.469Z,3.31
2018-11-22T08:59:38.599Z,3.31
2018-11-22T09:00:38.525Z,3.33
2018-11-22T09:01:38.653Z,3.32
2018-11-22T09:02:45.397Z,3.33
2018-11-22T09:03:38.437Z,3.34
2018-11-22T09:04:38.381Z,3.37
2018-11-22T09:05:38.356Z,3.4
2018-11-22T09:06:38.512Z,3.41
2018-11-22T09:07:38.525Z,3.38
2018-11-22T09:08:38.615Z,3.43
2018-11-22T09:09:38.416Z,3.41
2018-11-22T09:10:38.437Z,3.39
2018-11-22T09:11:38.368Z,3.4
2018-11-22T09:12:38.366Z,3.46
2018-11-22T09:13:38.485Z,3.49
2018-11-22T09:14:38.381Z,3.51
2018-11-22T09:15:38.355Z,3.55
2018-11-22T09:16:38.323Z,3.55
2018-11-22T09:17:38.335Z,3.59
2018-11-22T09:18:38.386Z,3.6
2018-11-22T09:19:38.487Z,3.62
2018-11-22T09:20:38.345Z,3.63
2018-11-22T09:21:38.328Z,3.65
2018-11-22T09:22:38.368Z,3.65
2018-11-22T09:23:38.936Z,3.69
2018-11-22T09:24:39.303Z,3.65
2018-11-22T09:25:38.331Z,3.69
2018-11-22T09:26:38.365Z,3.69
2018-11-22T09:27:38.369Z,3.72
2018-11-22T09:28:38.352Z,3.77
2018-11-22T09:29:39.986Z,3.77
2018-11-22T09:30:38.656Z,3.79
2018-11-22T09:31:38.305Z,3.78
2018-11-22T09:32:38.304Z,3.78
2018-11-22T09:33:38.320Z,3.79
2018-11-22T09:34:38.485Z,3.84
2018-11-22T09:35:38.294Z,3.83
2018-11-22T09:36:38.269Z,3.82
2018-11-22T09:37:38.341Z,3.8
2018-11-22T09:38:38.483Z,3.85
2018-11-22T09:39:38.281Z,3.84
2018-11-22T09:40:38.537Z,3.84
2018-11-22T09:41:38.328Z,3.79
2018-11-22T09:42:38.351Z,3.84
2018-11-22T09:43:38.413Z,3.77
2018-11-22T09:44:38.454Z,3.84
2018-11-22T09:45:38.513Z,3.83
2018-11-22T09:46:38.375Z,3.79
2018-11-22T09:47:38.441Z,3.76
2018-11-22T09:48:39.129Z,3.78
2018-11-22T09:49:38.277Z,3.81
2018-11-22T09:50:38.492Z,3.85
2018-11-22T09:51:38.448Z,3.91
2018-11-22T09:52:38.333Z,3.93
2018-11-22T09:53:38.422Z,3.97
2018-11-22T09:54:38.335Z,3.97
2018-11-22T09:55:38.338Z,4
2018-11-22T09:56:38.316Z,4.05
2018-11-22T09:57:38.247Z,4.06
2018-11-22T09:58:38.475Z,4.05
2018-11-22T09:59:38.332Z,4.06
2018-11-22T10:00:38.381Z,4.08
2018-11-22T10:01:38.252Z,4.05
2018-11-22T10:02:38.348Z,4.07
2018-11-22T10:03:38.205Z,4.1
2018-11-22T10:04:38.982Z,4.11
2018-11-22T10:05:38.591Z,4.16
2018-11-22T10:06:38.295Z,4.18
2018-11-22T10:07:38.280Z,4.21
2018-11-22T10:08:39.269Z,4.18
2018-11-22T10:09:38.433Z,4.21
2018-11-22T10:10:38.336Z,4.23
2018-11-22T10:11:38.222Z,4.23
2018-11-22T10:12:39.654Z,4.2
2018-11-22T10:13:38.289Z,4.23
2018-11-22T10:14:38.209Z,4.23
2018-11-22T10:15:38.288Z,4.24
2018-11-22T10:16:38.366Z,4.28
2018-11-22T10:17:38.450Z,4.26
2018-11-22T10:18:39.137Z,4.33
2018-11-22T10:19:38.334Z,4.35
2018-11-22T10:20:38.425Z,4.35
2018-11-22T10:21:38.293Z,4.33
2018-11-22T10:22:39.249Z,4.4
2018-11-22T10:23:38.709Z,4.42
2018-11-22T10:24:38.339Z,4.41
2018-11-22T10:25:38.343Z,4.41
2018-11-22T10:26:38.601Z,4.39
2018-11-22T10:27:38.177Z,4.38
2018-11-22T10:28:38.701Z,4.42
2018-11-22T10:29:38.310Z,4.45
2018-11-22T10:30:38.299Z,4.48
2018-11-22T10:31:39.106Z,4.5
2018-11-22T10:32:38.360Z,4.55
2018-11-22T10:33:38.178Z,4.55
2018-11-22T10:34:38.296Z,4.55
2018-11-22T10:35:38.180Z,4.59
2018-11-22T10:36:38.313Z,4.6
2018-11-22T10:37:38.624Z,4.58
2018-11-22T10:38:38.281Z,4.55
2018-11-22T10:39:38.229Z,4.6
2018-11-22T10:40:38.341Z,4.62
2018-11-22T10:41:38.701Z,4.69
2018-11-22T10:42:39.387Z,4.75
2018-11-22T10:43:38.293Z,4.81
2018-11-22T10:44:38.247Z,4.86
2018-11-22T10:45:38.271Z,4.88
2018-11-22T10:46:38.137Z,4.89
2018-11-22T10:47:38.230Z,4.94
2018-11-22T10:48:38.169Z,4.89
2018-11-22T10:49:38.251Z,4.91
2018-11-22T10:50:38.279Z,4.98
2018-11-22T10:51:38.126Z,5.03
2018-11-22T10:52:38.188Z,5.1
2018-11-22T10:53:38.138Z,5.15
2018-11-22T10:54:38.315Z,5.19
2018-11-22T10:55:38.339Z,5.22
2018-11-22T10:56:38.122Z,5.24
2018-11-22T10:57:38.199Z,5.24
2018-11-22T10:58:38.121Z,5.3
2018-11-22T10:59:38.186Z,5.36
2018-11-22T11:00:38.183Z,5.33
2018-11-22T11:01:38.276Z,5.32
2018-11-22T11:02:38.204Z,5.33
2018-11-22T11:03:38.192Z,5.33
2018-11-22T11:04:38.180Z,5.34
2018-11-22T11:05:38.398Z,5.26
2018-11-22T11:06:38.179Z,5.28
2018-11-22T11:07:38.175Z,5.29
2018-11-22T11:08:38.209Z,5.12
2018-11-22T11:09:38.162Z,5.17
2018-11-22T11:10:38.217Z,5.2
2018-11-22T11:11:38.258Z,5.2
2018-11-22T11:12:38.207Z,5.27
2018-11-22T11:13:38.245Z,5.32
2018-11-22T11:14:38.094Z,5.4
2018-11-22T11:15:38.126Z,5.46
2018-11-22T11:16:38.323Z,5.53
2018-11-22T11:17:38.490Z,5.6
2018-11-22T11:18:38.229Z,5.65
2018-11-22T11:19:38.253Z,5.68
2018-11-22T11:20:38.280Z,5.67
2018-11-22T11:21:38.363Z,5.72
2018-11-22T11:22:38.192Z,5.78
2018-11-22T11:23:38.532Z,5.83
2018-11-22T11:24:43.125Z,5.81
2018-11-22T11:25:38.243Z,5.75
2018-11-22T11:26:38.381Z,5.82
2018-11-22T11:27:38.273Z,5.82
2018-11-22T11:28:38.206Z,5.84
2018-11-22T11:29:38.483Z,5.84
2018-11-22T11:30:39.233Z,5.55
2018-11-22T11:31:38.191Z,5.4
2018-11-22T11:32:38.432Z,5.57
2018-11-22T11:33:38.141Z,5.63
2018-11-22T11:34:38.461Z,5.6
2018-11-22T11:35:38.186Z,5.68
2018-11-22T11:36:38.220Z,5.7
2018-11-22T11:37:38.256Z,5.71
2018-11-22T11:38:38.074Z,5.78
2018-11-22T11:39:38.293Z,5.72
2018-11-22T11:40:38.188Z,5.75
2018-11-22T11:41:38.468Z,5.75
2018-11-22T11:42:38.268Z,5.67
2018-11-22T11:43:38.281Z,5.51
2018-11-22T11:44:38.420Z,5.41
2018-11-22T11:45:38.171Z,5.5
2018-11-22T11:46:38.367Z,5.53
2018-11-22T11:47:38.219Z,5.59
2018-11-22T11:48:38.401Z,5.63
2018-11-22T11:49:38.203Z,5.66
2018-11-22T11:50:38.208Z,5.67
2018-11-22T11:51:38.230Z,5.62
2018-11-22T11:52:38.581Z,5.61
2018-11-22T11:53:42.171Z,5.6
2018-11-22T11:54:38.364Z,5.57
2018-11-22T11:55:38.222Z,5.59
2018-11-22T11:56:38.079Z,5.63
2018-11-22T11:57:38.223Z,5.64
2018-11-22T11:58:38.196Z,5.66
2018-11-22T11:59:38.386Z,5.66
2018-11-22T12:00:38.329Z,5.6
2018-11-22T12:01:38.135Z,5.49
2018-11-22T12:02:38.156Z,5.53
2018-11-22T12:03:38.297Z,5.49
2018-11-22T12:04:38.408Z,5.48
2018-11-22T12:05:38.294Z,5.45
2018-11-22T12:06:38.129Z,5.43
2018-11-22T12:07:38.296Z,5.4
2018-11-22T12:08:38.245Z,5.42
2018-11-22T12:09:38.177Z,5.5
2018-11-22T12:10:38.093Z,5.55
2018-11-22T12:11:38.403Z,5.61
2018-11-22T12:12:38.072Z,5.63
2018-11-22T12:13:38.712Z,5.71
2018-11-22T12:14:38.152Z,5.75
2018-11-22T12:15:38.159Z,5.77
2018-11-22T12:16:38.037Z,5.76
2018-11-22T12:17:38.210Z,5.76
2018-11-22T12:18:38.041Z,5.74
2018-11-22T12:19:38.016Z,5.79
2018-11-22T12:20:38.018Z,5.81
2018-11-22T12:21:38.171Z,5.85
2018-11-22T12:22:38.100Z,5.87
2018-11-22T12:23:38.061Z,5.9
2018-11-22T12:24:38.183Z,5.94
2018-11-22T12:25:38.083Z,5.96
2018-11-22T12:26:38.023Z,5.96
2018-11-22T12:27:38.311Z,5.97
2018-11-22T12:28:38.024Z,5.99
2018-11-22T12:29:38.038Z,5.99
2018-11-22T12:30:38.071Z,6.01
2018-11-22T12:31:38.051Z,6.01
2018-11-22T12:32:38.251Z,6.03
2018-11-22T12:33:38.197Z,6
2018-11-22T12:34:38.016Z,6.01
2018-11-22T12:35:38.164Z,6.02
2018-11-22T12:36:38.167Z,6.04
2018-11-22T12:37:43.664Z,6.07
2018-11-22T12:38:38.371Z,6.06
2018-11-22T12:39:38.180Z,5.99
2018-11-22T12:40:38.136Z,6.03
2018-11-22T12:41:38.065Z,6.07
2018-11-22T12:42:38.155Z,6.08
2018-11-22T12:43:38.059Z,6.11
2018-11-22T12:44:38.030Z,6.1
2018-11-22T12:45:38.180Z,6.05
2018-11-22T12:46:38.390Z,6.06
2018-11-22T12:47:38.341Z,6.02
2018-11-22T12:48:38.014Z,5.96
2018-11-22T12:49:38.027Z,5.97
2018-11-22T12:50:38.009Z,5.98
2018-11-22T12:51:38.110Z,5.98
2018-11-22T12:52:38.093Z,6.03
2018-11-22T12:53:38.507Z,6.02
2018-11-22T12:54:38.422Z,6.04
2018-11-22T12:55:37.974Z,6.05
2018-11-22T12:56:38.201Z,6.02
2018-11-22T12:57:38.127Z,6.04
2018-11-22T12:58:38.221Z,6.04
2018-11-22T12:59:38.190Z,6.08
2018-11-22T13:00:38.391Z,6.1
2018-11-22T13:01:38.029Z,6.11
2018-11-22T13:02:38.022Z,6.12
2018-11-22T13:03:38.180Z,6.14
2018-11-22T13:04:37.994Z,6.15
2018-11-22T13:05:38.022Z,6.17
2018-11-22T13:06:37.969Z,6.17
2018-11-22T13:07:38.335Z,6.15
2018-11-22T13:08:38.193Z,6.17
2018-11-22T13:09:37.997Z,6.17
2018-11-22T13:10:38.342Z,6.13
2018-11-22T13:11:38.046Z,6.15
2018-11-22T13:12:37.995Z,6.1
2018-11-22T13:13:38.218Z,6.15
2018-11-22T13:14:38.270Z,6.2
2018-11-22T13:15:38.103Z,6.22
2018-11-22T13:16:38.130Z,6.24
2018-11-22T13:17:37.998Z,6.23
2018-11-22T13:18:38.007Z,6.26
2018-11-22T13:19:38.488Z,6.27
2018-11-22T13:20:38.377Z,6.23
2018-11-22T13:21:37.960Z,6.22
2018-11-22T13:22:37.965Z,6.2